Wednesday, August 20, 2014
22:31 UTC
  |  Log In   |  Register Free
Airport Search:

Northeast Philadelphia Airport
(KPNE)

FAA data valid effective July 24, 2014 until September 18, 2014 (unless otherwise noted).

 
 
 
 
 
 
 
 
 
 
 
 
 
 

Current Aviation Weather for Northeast Philadelphia Airport (KPNE)

The most recent METAR observation for KPNE was updated at: 1754 UTC
METAR Summary (Translated METAR)
KPNE
281754Z AUTO 27019G24KT 10SM FEW047 28/16 A2960 RMK AO2 SLP021 T02830156 10283 20228 55002 TSNO
KLOM
(12.1 nm NW from KPNE)
281835Z AUTO 27008G17KT 240V310 10SM SCT047 SCT065 26/16 A2959 RMK AO1
TAF Summary (Translated TAF)
KPNE
201740Z 2018/2118 14005KT P6SM SCT050 FM210000 15004KT P6SM SCT050 BKN250 FM210300 00000KT P6SM VCSH BKN050 FM211600 17004KT P6SM BKN035
  Airport Weather Conditions for KPNE

 Current Weather at PNE
83° F
Overcast
Southeast winds at 8.1 mph
PNE NOAA Radar

Pressure: 29.99 in
Humidity: 49%
Wind: Southeast at 8.1 MPH (7 KT)
Dew Point: 62.1°F
Visibility: 10.00 mi


Airport Weather Forecast for KPNE

Translated METAR and TAF for KPNE
Translated METAR for KPNE (2225 UTC 20 August 2014)
found at http://aviationweather.gov/adds/metars/
 
METAR text: KPNE 202154Z 14007KT 130V190 10SM BKN055 OVC075 28/17 A2999 RMK AO2 SLP153 T02830167
Conditions at: KPNE (PHILADELPHIA/NE , PA, US) observed 2154 UTC 20 August 2014
Temperature: 28.3°C (83°F)
Dewpoint: 16.7°C (62°F) [RH = 49%]
Pressure (altimeter): 29.99 inches Hg (1015.7 mb)
[Sea-level pressure: 1015.3 mb]
Winds: from the SE (140 degrees) at 8 MPH (7 knots; 3.6 m/s)
Visibility: 10 or more miles (16+ km)
Ceiling: 5500 feet AGL
Clouds: broken clouds at 5500 feet AGL
overcast cloud deck at 7500 feet AGL
Weather: no significant weather observed at this time
Translated TAF for KPNE
Forecast for: KPNE (PHILADELPHIA/NE , PA, US)
TAF Text: KPNE 201740Z 2018/2118 14005KT P6SM SCT050
Forecast period: 1800 UTC 20 August 2014 to 0000 UTC 21 August 2014
Forecast type: FROM: standard forecast or significant change
Winds: from the SE (140 degrees) at 6 MPH (5 knots; 2.6 m/s)
Visibility: 6 or more miles (10+ km)
Clouds: scattered clouds at 5000 feet AGL
Weather: no significant weather forecast for this period
TAF Text: FM210000 15004KT P6SM SCT050 BKN250
Forecast period: 0000 to 0300 UTC 21 August 2014
Forecast type: FROM: standard forecast or significant change
Winds: from the SSE (150 degrees) at 5 MPH (4 knots; 2.1 m/s)
Visibility: 6 or more miles (10+ km)
Ceiling: 25000 feet AGL
Clouds: scattered clouds at 5000 feet AGL
broken clouds at 25000 feet AGL
Weather: no significant weather forecast for this period
TAF Text: FM210300 00000KT P6SM VCSH BKN050
Forecast period: 0300 to 1600 UTC 21 August 2014
Forecast type: FROM: standard forecast or significant change
Winds: calm
Visibility: 6 or more miles (10+ km)
Ceiling: 5000 feet AGL
Clouds: broken clouds at 5000 feet AGL
Weather: VCSH  (showers in vicinity)
TAF Text: FM211600 17004KT P6SM BKN035
Forecast period: 1600 to 1800 UTC 21 August 2014
Forecast type: FROM: standard forecast or significant change
Winds: from the S (170 degrees) at 5 MPH (4 knots; 2.1 m/s)
Visibility: 6 or more miles (10+ km)
Ceiling: 3500 feet AGL
Clouds: broken clouds at 3500 feet AGL
Weather: no significant weather forecast for this period

Find All Airport Services Find A Hotel Find A Rental Car Find A Golf Course Find A Restaurant $100 Hamburger



FBO's on the Field
FBO Company Facility Photos Services Transportation Aviation Fuel Prices: Prices include tax
Catering Weather Repair Courtesy Rental Type 100LL JetA JetA+ MOGAS 8087
 
Atlantic Aviation

This FBO has not yet been rated
FS:Texaco
Last Updated: Aug-20
Login to update fuel prices
SS:
Contact Atlantic AviationMore FBO Information
 
North Philadelphia Jet Center

Currently rated 5 by 2 people
FS:Avfuel
Last Updated: Aug-19
Login to update fuel prices
SS:
Contact North Philadelphia Jet CenterMore FBO Information
 
Add another FBO Facility Photos Catering Weather Repair Courtesy Rental Type 100LL JetA JetA+ MOGAS 8087
Services Transportation Aviation Fuel Prices: Prices include tax


GlobalAir.com Airport Resource Center model-print
model-print
model-print
model-print